sensor_id;sensor_type;location;lat;lon;timestamp;pressure;altitude;pressure_sealevel;temperature;humidity
37878;BME280;23715;53.652;8.516;2023-04-25T00:02:20;100881.85;;;6.96;100.00
37878;BME280;23715;53.652;8.516;2023-04-25T00:07:21;100847.79;;;6.93;100.00
37878;BME280;23715;53.652;8.516;2023-04-25T00:12:21;100807.36;;;6.84;100.00
37878;BME280;23715;53.652;8.516;2023-04-25T00:17:22;100781.84;;;6.99;100.00
37878;BME280;23715;53.652;8.516;2023-04-25T00:22:23;100784.28;;;6.71;100.00
37878;BME280;23715;53.652;8.516;2023-04-25T00:27:24;100766.17;;;6.69;100.00
37878;BME280;23715;53.652;8.516;2023-04-25T00:32:24;100754.48;;;6.64;100.00
37878;BME280;23715;53.652;8.516;2023-04-25T00:37:24;100758.50;;;6.64;100.00
37878;BME280;23715;53.652;8.516;2023-04-25T00:42:25;100755.87;;;6.70;100.00
37878;BME280;23715;53.652;8.516;2023-04-25T00:47:26;100747.86;;;6.70;100.00
37878;BME280;23715;53.652;8.516;2023-04-25T00:52:25;100751.97;;;6.68;100.00
37878;BME280;23715;53.652;8.516;2023-04-25T00:57:25;100752.11;;;6.72;100.00
37878;BME280;23715;53.652;8.516;2023-04-25T01:02:24;100754.73;;;6.79;100.00
37878;BME280;23715;53.652;8.516;2023-04-25T01:07:25;100773.34;;;6.87;100.00
37878;BME280;23715;53.652;8.516;2023-04-25T01:12:28;100793.59;;;6.78;100.00
37878;BME280;23715;53.652;8.516;2023-04-25T01:17:28;100780.80;;;6.89;100.00
37878;BME280;23715;53.652;8.516;2023-04-25T01:22:27;100798.94;;;6.78;100.00
37878;BME280;23715;53.652;8.516;2023-04-25T01:27:27;100793.80;;;6.75;100.00
37878;BME280;23715;53.652;8.516;2023-04-25T01:32:27;100777.70;;;6.69;100.00
37878;BME280;23715;53.652;8.516;2023-04-25T01:37:26;100768.59;;;6.53;100.00
37878;BME280;23715;53.652;8.516;2023-04-25T01:42:26;100747.42;;;6.63;100.00
37878;BME280;23715;53.652;8.516;2023-04-25T01:47:25;100740.34;;;6.43;100.00
37878;BME280;23715;53.652;8.516;2023-04-25T01:52:26;100762.50;;;6.38;100.00
37878;BME280;23715;53.652;8.516;2023-04-25T01:57:26;100752.27;;;6.45;100.00
37878;BME280;23715;53.652;8.516;2023-04-25T02:02:26;100750.09;;;6.37;100.00
37878;BME280;23715;53.652;8.516;2023-04-25T02:07:26;100749.50;;;6.52;100.00
37878;BME280;23715;53.652;8.516;2023-04-25T02:12:26;100758.01;;;6.39;100.00
37878;BME280;23715;53.652;8.516;2023-04-25T02:17:27;100751.59;;;6.16;100.00
37878;BME280;23715;53.652;8.516;2023-04-25T02:22:27;100756.27;;;6.32;100.00
37878;BME280;23715;53.652;8.516;2023-04-25T02:27:28;100762.41;;;6.40;100.00
37878;BME280;23715;53.652;8.516;2023-04-25T02:32:28;100756.11;;;6.28;100.00
37878;BME280;23715;53.652;8.516;2023-04-25T02:37:27;100763.74;;;6.53;100.00
37878;BME280;23715;53.652;8.516;2023-04-25T02:42:27;100775.63;;;6.54;100.00
37878;BME280;23715;53.652;8.516;2023-04-25T02:47:28;100786.47;;;6.20;100.00
37878;BME280;23715;53.652;8.516;2023-04-25T02:52:27;100788.67;;;6.33;100.00
37878;BME280;23715;53.652;8.516;2023-04-25T02:57:28;100791.84;;;6.58;100.00
37878;BME280;23715;53.652;8.516;2023-04-25T03:02:28;100789.81;;;6.49;100.00
37878;BME280;23715;53.652;8.516;2023-04-25T03:07:28;100796.17;;;6.28;100.00
37878;BME280;23715;53.652;8.516;2023-04-25T03:12:27;100784.41;;;6.31;100.00
37878;BME280;23715;53.652;8.516;2023-04-25T03:17:27;100765.53;;;6.52;100.00
37878;BME280;23715;53.652;8.516;2023-04-25T03:22:26;100749.84;;;6.60;100.00
37878;BME280;23715;53.652;8.516;2023-04-25T03:27:26;100752.36;;;6.43;100.00
37878;BME280;23715;53.652;8.516;2023-04-25T03:32:25;100760.53;;;6.60;100.00
37878;BME280;23715;53.652;8.516;2023-04-25T03:37:25;100780.77;;;6.44;100.00
37878;BME280;23715;53.652;8.516;2023-04-25T03:42:25;100805.14;;;6.40;100.00
37878;BME280;23715;53.652;8.516;2023-04-25T03:47:25;100835.02;;;5.99;100.00
37878;BME280;23715;53.652;8.516;2023-04-25T03:52:25;100855.42;;;5.93;100.00
37878;BME280;23715;53.652;8.516;2023-04-25T03:57:24;100867.83;;;5.94;100.00
37878;BME280;23715;53.652;8.516;2023-04-25T04:02:25;100892.65;;;5.75;100.00
37878;BME280;23715;53.652;8.516;2023-04-25T04:07:25;100897.19;;;5.94;100.00
37878;BME280;23715;53.652;8.516;2023-04-25T04:12:26;100884.98;;;5.97;100.00
37878;BME280;23715;53.652;8.516;2023-04-25T04:17:26;100887.77;;;5.89;100.00
37878;BME280;23715;53.652;8.516;2023-04-25T04:22:25;100882.51;;;5.94;100.00
37878;BME280;23715;53.652;8.516;2023-04-25T04:27:27;100882.42;;;6.69;100.00
37878;BME280;23715;53.652;8.516;2023-04-25T04:32:35;100880.27;;;6.87;100.00
37878;BME280;23715;53.652;8.516;2023-04-25T04:37:37;100877.94;;;6.82;100.00
37878;BME280;23715;53.652;8.516;2023-04-25T04:42:38;100867.00;;;6.47;100.00
37878;BME280;23715;53.652;8.516;2023-04-25T04:47:48;100894.31;;;6.04;100.00
37878;BME280;23715;53.652;8.516;2023-04-25T04:52:49;100911.71;;;5.83;100.00
37878;BME280;23715;53.652;8.516;2023-04-25T04:57:59;100903.95;;;5.93;100.00
37878;BME280;23715;53.652;8.516;2023-04-25T05:03:03;100893.14;;;6.09;100.00
37878;BME280;23715;53.652;8.516;2023-04-25T05:08:17;100895.61;;;6.32;100.00
37878;BME280;23715;53.652;8.516;2023-04-25T05:13:18;100906.68;;;6.33;100.00
37878;BME280;23715;53.652;8.516;2023-04-25T05:18:39;100904.56;;;6.38;100.00
37878;BME280;23715;53.652;8.516;2023-04-25T05:23:43;100900.09;;;6.31;100.00
37878;BME280;23715;53.652;8.516;2023-04-25T05:28:59;100903.97;;;6.20;100.00
37878;BME280;23715;53.652;8.516;2023-04-25T05:34:17;100940.62;;;6.11;100.00
37878;BME280;23715;53.652;8.516;2023-04-25T05:39:24;100943.68;;;6.12;100.00
37878;BME280;23715;53.652;8.516;2023-04-25T05:44:26;100934.05;;;6.36;100.00
37878;BME280;23715;53.652;8.516;2023-04-25T05:49:38;100932.09;;;6.45;100.00
37878;BME280;23715;53.652;8.516;2023-04-25T05:54:42;100945.97;;;6.38;100.00
37878;BME280;23715;53.652;8.516;2023-04-25T05:59:42;100961.45;;;6.05;100.00
37878;BME280;23715;53.652;8.516;2023-04-25T06:04:41;100969.05;;;6.32;100.00
37878;BME280;23715;53.652;8.516;2023-04-25T06:09:41;100981.80;;;6.21;100.00
37878;BME280;23715;53.652;8.516;2023-04-25T06:14:40;100970.37;;;6.19;100.00
37878;BME280;23715;53.652;8.516;2023-04-25T06:19:41;100965.33;;;6.41;100.00
37878;BME280;23715;53.652;8.516;2023-04-25T06:24:40;100969.64;;;6.30;100.00
37878;BME280;23715;53.652;8.516;2023-04-25T06:29:40;100968.09;;;6.40;100.00
37878;BME280;23715;53.652;8.516;2023-04-25T06:34:40;100986.35;;;6.53;100.00
37878;BME280;23715;53.652;8.516;2023-04-25T06:39:41;100970.42;;;6.72;100.00
37878;BME280;23715;53.652;8.516;2023-04-25T06:44:42;100961.48;;;6.45;100.00
37878;BME280;23715;53.652;8.516;2023-04-25T06:49:42;100966.05;;;6.51;100.00
37878;BME280;23715;53.652;8.516;2023-04-25T06:54:44;100988.63;;;6.52;100.00
37878;BME280;23715;53.652;8.516;2023-04-25T06:59:57;100999.66;;;6.80;100.00
37878;BME280;23715;53.652;8.516;2023-04-25T07:04:57;101017.27;;;6.30;100.00
37878;BME280;23715;53.652;8.516;2023-04-25T07:09:58;101042.91;;;6.25;100.00
37878;BME280;23715;53.652;8.516;2023-04-25T07:14:59;101056.58;;;6.21;100.00
37878;BME280;23715;53.652;8.516;2023-04-25T07:20:00;101062.86;;;6.13;100.00
37878;BME280;23715;53.652;8.516;2023-04-25T07:25:00;101059.03;;;6.24;100.00
37878;BME280;23715;53.652;8.516;2023-04-25T07:30:01;101077.22;;;6.39;100.00
37878;BME280;23715;53.652;8.516;2023-04-25T07:35:02;101059.31;;;6.81;100.00
37878;BME280;23715;53.652;8.516;2023-04-25T07:40:02;101054.73;;;7.03;100.00
37878;BME280;23715;53.652;8.516;2023-04-25T07:45:06;101044.94;;;6.76;100.00
37878;BME280;23715;53.652;8.516;2023-04-25T07:50:08;101038.02;;;6.67;100.00
37878;BME280;23715;53.652;8.516;2023-04-25T07:55:10;101043.55;;;6.91;100.00
37878;BME280;23715;53.652;8.516;2023-04-25T08:00:11;101047.00;;;6.86;100.00
37878;BME280;23715;53.652;8.516;2023-04-25T08:05:16;101056.02;;;6.77;100.00
37878;BME280;23715;53.652;8.516;2023-04-25T08:10:18;101043.75;;;7.33;100.00
37878;BME280;23715;53.652;8.516;2023-04-25T08:15:19;101056.93;;;7.36;100.00
37878;BME280;23715;53.652;8.516;2023-04-25T08:20:19;101066.77;;;7.03;100.00
37878;BME280;23715;53.652;8.516;2023-04-25T08:25:20;101093.38;;;6.64;100.00
37878;BME280;23715;53.652;8.516;2023-04-25T08:30:19;101113.25;;;6.60;100.00
37878;BME280;23715;53.652;8.516;2023-04-25T08:35:19;101132.95;;;6.38;100.00
37878;BME280;23715;53.652;8.516;2023-04-25T08:40:19;101152.50;;;6.53;100.00
37878;BME280;23715;53.652;8.516;2023-04-25T08:45:27;101177.80;;;6.33;100.00
37878;BME280;23715;53.652;8.516;2023-04-25T08:50:27;101165.10;;;6.51;100.00
37878;BME280;23715;53.652;8.516;2023-04-25T08:55:28;101185.95;;;7.00;100.00
37878;BME280;23715;53.652;8.516;2023-04-25T09:00:34;101176.06;;;7.42;100.00
37878;BME280;23715;53.652;8.516;2023-04-25T09:05:51;101146.75;;;7.53;100.00
37878;BME280;23715;53.652;8.516;2023-04-25T09:10:43;101154.81;;;8.05;100.00
37878;BME280;23715;53.652;8.516;2023-04-25T09:16:04;101144.69;;;8.03;100.00
37878;BME280;23715;53.652;8.516;2023-04-25T09:26:20;101133.58;;;8.01;100.00
37878;BME280;23715;53.652;8.516;2023-04-25T09:42:17;101189.20;;;6.98;100.00
37878;BME280;23715;53.652;8.516;2023-04-25T09:47:17;101196.30;;;6.92;100.00
37878;BME280;23715;53.652;8.516;2023-04-25T09:52:22;101206.30;;;7.02;100.00
37878;BME280;23715;53.652;8.516;2023-04-25T09:57:29;101171.09;;;7.76;100.00
37878;BME280;23715;53.652;8.516;2023-04-25T10:02:29;101162.30;;;7.99;100.00
37878;BME280;23715;53.652;8.516;2023-04-25T10:07:32;101170.38;;;7.92;100.00
37878;BME280;23715;53.652;8.516;2023-04-25T10:12:34;101156.70;;;8.28;100.00
37878;BME280;23715;53.652;8.516;2023-04-25T10:17:35;101187.94;;;7.96;100.00
37878;BME280;23715;53.652;8.516;2023-04-25T10:22:35;101214.84;;;8.33;100.00
37878;BME280;23715;53.652;8.516;2023-04-25T10:27:36;101204.50;;;8.60;100.00
37878;BME280;23715;53.652;8.516;2023-04-25T10:32:35;101260.59;;;6.69;100.00
37878;BME280;23715;53.652;8.516;2023-04-25T10:37:35;101252.28;;;6.16;100.00
37878;BME280;23715;53.652;8.516;2023-04-25T10:42:34;101254.58;;;6.58;100.00
37878;BME280;23715;53.652;8.516;2023-04-25T10:47:35;101263.81;;;6.95;100.00
37878;BME280;23715;53.652;8.516;2023-04-25T10:52:38;101244.61;;;7.57;100.00
37878;BME280;23715;53.652;8.516;2023-04-25T10:57:41;101247.48;;;8.20;100.00
37878;BME280;23715;53.652;8.516;2023-04-25T11:07:50;101287.48;;;6.15;100.00
37878;BME280;23715;53.652;8.516;2023-04-25T11:12:50;101331.47;;;5.55;100.00
37878;BME280;23715;53.652;8.516;2023-04-25T11:17:53;101356.70;;;5.88;100.00
37878;BME280;23715;53.652;8.516;2023-04-25T11:22:52;101377.06;;;6.21;100.00
37878;BME280;23715;53.652;8.516;2023-04-25T11:27:53;101378.36;;;6.14;100.00
37878;BME280;23715;53.652;8.516;2023-04-25T11:32:54;101395.22;;;6.30;100.00
37878;BME280;23715;53.652;8.516;2023-04-25T11:37:54;101396.16;;;6.29;100.00
37878;BME280;23715;53.652;8.516;2023-04-25T11:42:54;101409.44;;;7.40;100.00
37878;BME280;23715;53.652;8.516;2023-04-25T11:47:53;101384.61;;;7.72;100.00
37878;BME280;23715;53.652;8.516;2023-04-25T11:52:55;101359.01;;;7.27;100.00
37878;BME280;23715;53.652;8.516;2023-04-25T11:57:54;101342.97;;;7.81;100.00
37878;BME280;23715;53.652;8.516;2023-04-25T12:02:55;101327.00;;;7.59;100.00
37878;BME280;23715;53.652;8.516;2023-04-25T12:07:56;101374.34;;;6.44;100.00
37878;BME280;23715;53.652;8.516;2023-04-25T12:12:55;101388.01;;;6.54;100.00
37878;BME280;23715;53.652;8.516;2023-04-25T12:17:57;101388.53;;;6.30;100.00
37878;BME280;23715;53.652;8.516;2023-04-25T12:22:56;101375.07;;;6.83;100.00
37878;BME280;23715;53.652;8.516;2023-04-25T12:28:08;101373.25;;;6.84;100.00
37878;BME280;23715;53.652;8.516;2023-04-25T12:32:58;101385.15;;;7.36;100.00
37878;BME280;23715;53.652;8.516;2023-04-25T12:37:58;101363.55;;;7.39;100.00
37878;BME280;23715;53.652;8.516;2023-04-25T12:42:57;101355.11;;;7.52;100.00
37878;BME280;23715;53.652;8.516;2023-04-25T12:47:58;101351.29;;;8.04;100.00
37878;BME280;23715;53.652;8.516;2023-04-25T12:52:59;101333.06;;;8.16;100.00
37878;BME280;23715;53.652;8.516;2023-04-25T12:58:00;101342.47;;;8.09;100.00
37878;BME280;23715;53.652;8.516;2023-04-25T13:03:03;101344.33;;;8.01;100.00
37878;BME280;23715;53.652;8.516;2023-04-25T13:08:03;101325.14;;;8.60;100.00
37878;BME280;23715;53.652;8.516;2023-04-25T13:13:02;101337.53;;;8.03;100.00
37878;BME280;23715;53.652;8.516;2023-04-25T13:18:03;101330.91;;;8.21;100.00
37878;BME280;23715;53.652;8.516;2023-04-25T13:23:03;101319.80;;;8.07;100.00
37878;BME280;23715;53.652;8.516;2023-04-25T13:28:03;101335.09;;;8.12;100.00
37878;BME280;23715;53.652;8.516;2023-04-25T13:33:05;101340.19;;;8.23;100.00
37878;BME280;23715;53.652;8.516;2023-04-25T13:38:04;101355.87;;;7.81;100.00
37878;BME280;23715;53.652;8.516;2023-04-25T13:43:04;101344.03;;;7.98;100.00
37878;BME280;23715;53.652;8.516;2023-04-25T13:48:04;101349.20;;;8.34;100.00
37878;BME280;23715;53.652;8.516;2023-04-25T13:53:06;101356.95;;;8.19;100.00
37878;BME280;23715;53.652;8.516;2023-04-25T13:58:05;101341.21;;;8.47;100.00
37878;BME280;23715;53.652;8.516;2023-04-25T14:03:08;101336.66;;;8.81;100.00
37878;BME280;23715;53.652;8.516;2023-04-25T14:08:07;101342.14;;;8.33;100.00
37878;BME280;23715;53.652;8.516;2023-04-25T14:13:07;101349.66;;;8.21;100.00
37878;BME280;23715;53.652;8.516;2023-04-25T14:18:07;101369.67;;;8.03;100.00
37878;BME280;23715;53.652;8.516;2023-04-25T14:23:06;101373.27;;;7.81;100.00
37878;BME280;23715;53.652;8.516;2023-04-25T14:28:06;101388.04;;;7.18;100.00
37878;BME280;23715;53.652;8.516;2023-04-25T14:33:06;101373.15;;;7.21;100.00
37878;BME280;23715;53.652;8.516;2023-04-25T14:38:05;101380.86;;;7.75;100.00
37878;BME280;23715;53.652;8.516;2023-04-25T14:43:06;101378.00;;;7.98;100.00
37878;BME280;23715;53.652;8.516;2023-04-25T14:48:05;101380.09;;;8.00;100.00
37878;BME280;23715;53.652;8.516;2023-04-25T14:53:05;101369.59;;;8.17;100.00
37878;BME280;23715;53.652;8.516;2023-04-25T14:58:04;101387.11;;;8.43;100.00
37878;BME280;23715;53.652;8.516;2023-04-25T15:03:06;101380.15;;;8.33;100.00
37878;BME280;23715;53.652;8.516;2023-04-25T15:08:05;101398.71;;;8.29;100.00
37878;BME280;23715;53.652;8.516;2023-04-25T15:13:08;101444.58;;;6.83;100.00
37878;BME280;23715;53.652;8.516;2023-04-25T15:18:08;101441.84;;;6.55;100.00
37878;BME280;23715;53.652;8.516;2023-04-25T15:23:08;101449.67;;;7.38;100.00
37878;BME280;23715;53.652;8.516;2023-04-25T15:28:07;101456.15;;;7.56;100.00
37878;BME280;23715;53.652;8.516;2023-04-25T15:33:07;101464.97;;;7.36;100.00
37878;BME280;23715;53.652;8.516;2023-04-25T15:38:07;101465.91;;;7.14;100.00
37878;BME280;23715;53.652;8.516;2023-04-25T15:43:08;101457.18;;;7.60;100.00
37878;BME280;23715;53.652;8.516;2023-04-25T15:48:10;101453.25;;;7.73;100.00
37878;BME280;23715;53.652;8.516;2023-04-25T15:53:09;101444.11;;;7.97;100.00
37878;BME280;23715;53.652;8.516;2023-04-25T15:58:10;101438.00;;;8.15;100.00
37878;BME280;23715;53.652;8.516;2023-04-25T16:03:10;101446.23;;;7.85;100.00
37878;BME280;23715;53.652;8.516;2023-04-25T16:08:10;101435.66;;;7.76;100.00
37878;BME280;23715;53.652;8.516;2023-04-25T16:13:09;101463.15;;;7.15;100.00
37878;BME280;23715;53.652;8.516;2023-04-25T16:18:09;101441.48;;;6.75;100.00
37878;BME280;23715;53.652;8.516;2023-04-25T16:23:08;101454.53;;;7.24;100.00
37878;BME280;23715;53.652;8.516;2023-04-25T16:28:08;101454.55;;;7.17;100.00
37878;BME280;23715;53.652;8.516;2023-04-25T16:33:07;101455.84;;;7.60;100.00
37878;BME280;23715;53.652;8.516;2023-04-25T16:38:07;101449.97;;;7.90;100.00
37878;BME280;23715;53.652;8.516;2023-04-25T16:43:06;101438.09;;;7.45;100.00
37878;BME280;23715;53.652;8.516;2023-04-25T16:48:06;101435.40;;;7.67;100.00
37878;BME280;23715;53.652;8.516;2023-04-25T16:53:05;101435.09;;;7.57;100.00
37878;BME280;23715;53.652;8.516;2023-04-25T16:58:04;101436.56;;;7.34;100.00
37878;BME280;23715;53.652;8.516;2023-04-25T17:03:04;101449.17;;;7.24;100.00
37878;BME280;23715;53.652;8.516;2023-04-25T17:08:04;101446.69;;;7.65;100.00
37878;BME280;23715;53.652;8.516;2023-04-25T17:13:06;101444.95;;;7.56;100.00
37878;BME280;23715;53.652;8.516;2023-04-25T17:18:05;101451.49;;;7.31;100.00
37878;BME280;23715;53.652;8.516;2023-04-25T17:23:05;101440.31;;;7.10;100.00
37878;BME280;23715;53.652;8.516;2023-04-25T17:28:04;101449.38;;;7.14;100.00
37878;BME280;23715;53.652;8.516;2023-04-25T17:33:04;101482.23;;;7.02;100.00
37878;BME280;23715;53.652;8.516;2023-04-25T17:38:04;101477.80;;;6.87;100.00
37878;BME280;23715;53.652;8.516;2023-04-25T17:43:03;101470.34;;;6.84;100.00
37878;BME280;23715;53.652;8.516;2023-04-25T17:48:03;101476.17;;;6.84;100.00
37878;BME280;23715;53.652;8.516;2023-04-25T17:53:03;101474.27;;;6.86;100.00
37878;BME280;23715;53.652;8.516;2023-04-25T17:58:02;101481.81;;;6.79;100.00
37878;BME280;23715;53.652;8.516;2023-04-25T18:03:02;101492.90;;;6.88;100.00
37878;BME280;23715;53.652;8.516;2023-04-25T18:08:24;101534.94;;;5.58;100.00
37878;BME280;23715;53.652;8.516;2023-04-25T18:13:10;101565.58;;;5.67;100.00
37878;BME280;23715;53.652;8.516;2023-04-25T18:18:10;101558.19;;;5.81;100.00
37878;BME280;23715;53.652;8.516;2023-04-25T18:23:13;101556.07;;;5.79;100.00
37878;BME280;23715;53.652;8.516;2023-04-25T18:28:18;101552.43;;;6.13;100.00
37878;BME280;23715;53.652;8.516;2023-04-25T18:33:13;101552.10;;;6.58;100.00
37878;BME280;23715;53.652;8.516;2023-04-25T18:38:13;101550.72;;;6.74;100.00
37878;BME280;23715;53.652;8.516;2023-04-25T18:43:12;101548.98;;;6.73;100.00
37878;BME280;23715;53.652;8.516;2023-04-25T18:48:13;101559.67;;;6.50;100.00
37878;BME280;23715;53.652;8.516;2023-04-25T18:53:12;101562.55;;;6.70;100.00
37878;BME280;23715;53.652;8.516;2023-04-25T18:58:12;101558.53;;;6.47;100.00
37878;BME280;23715;53.652;8.516;2023-04-25T19:03:11;101545.55;;;6.71;100.00
37878;BME280;23715;53.652;8.516;2023-04-25T19:08:11;101554.48;;;6.24;100.00
37878;BME280;23715;53.652;8.516;2023-04-25T19:13:10;101545.05;;;6.25;100.00
37878;BME280;23715;53.652;8.516;2023-04-25T19:18:10;101542.30;;;6.27;100.00
37878;BME280;23715;53.652;8.516;2023-04-25T19:23:09;101549.02;;;6.34;100.00
37878;BME280;23715;53.652;8.516;2023-04-25T19:28:11;101567.61;;;6.52;100.00
37878;BME280;23715;53.652;8.516;2023-04-25T19:33:11;101550.88;;;6.64;100.00
37878;BME280;23715;53.652;8.516;2023-04-25T19:38:13;101556.97;;;6.59;100.00
37878;BME280;23715;53.652;8.516;2023-04-25T19:43:12;101551.74;;;6.49;100.00
37878;BME280;23715;53.652;8.516;2023-04-25T19:48:12;101553.23;;;6.38;100.00
37878;BME280;23715;53.652;8.516;2023-04-25T19:53:11;101562.36;;;6.18;100.00
37878;BME280;23715;53.652;8.516;2023-04-25T19:58:11;101568.66;;;6.33;100.00
37878;BME280;23715;53.652;8.516;2023-04-25T20:03:11;101560.48;;;6.36;100.00
37878;BME280;23715;53.652;8.516;2023-04-25T20:08:12;101574.06;;;6.24;100.00
37878;BME280;23715;53.652;8.516;2023-04-25T20:13:12;101594.00;;;6.42;100.00
37878;BME280;23715;53.652;8.516;2023-04-25T20:18:13;101595.28;;;6.35;100.00
37878;BME280;23715;53.652;8.516;2023-04-25T20:23:13;101592.32;;;6.71;100.00
37878;BME280;23715;53.652;8.516;2023-04-25T20:28:13;101602.53;;;6.17;100.00
37878;BME280;23715;53.652;8.516;2023-04-25T20:33:13;101617.73;;;5.99;100.00
37878;BME280;23715;53.652;8.516;2023-04-25T20:38:13;101635.73;;;5.95;100.00
37878;BME280;23715;53.652;8.516;2023-04-25T20:43:12;101635.59;;;5.81;100.00
37878;BME280;23715;53.652;8.516;2023-04-25T20:48:12;101622.00;;;6.19;100.00
37878;BME280;23715;53.652;8.516;2023-04-25T20:53:11;101632.91;;;5.98;100.00
37878;BME280;23715;53.652;8.516;2023-04-25T20:58:11;101630.59;;;6.24;100.00
37878;BME280;23715;53.652;8.516;2023-04-25T21:03:10;101633.20;;;6.01;100.00
37878;BME280;23715;53.652;8.516;2023-04-25T21:08:10;101629.69;;;6.16;100.00
37878;BME280;23715;53.652;8.516;2023-04-25T21:13:09;101628.17;;;6.28;100.00
37878;BME280;23715;53.652;8.516;2023-04-25T21:18:11;101614.44;;;6.02;100.00
37878;BME280;23715;53.652;8.516;2023-04-25T21:28:41;101607.36;;;5.93;100.00
37878;BME280;23715;53.652;8.516;2023-04-25T21:33:46;101617.31;;;6.06;100.00
37878;BME280;23715;53.652;8.516;2023-04-25T21:38:46;101616.49;;;5.89;100.00
37878;BME280;23715;53.652;8.516;2023-04-25T21:43:45;101608.88;;;5.98;100.00
37878;BME280;23715;53.652;8.516;2023-04-25T21:48:45;101595.61;;;6.13;100.00
37878;BME280;23715;53.652;8.516;2023-04-25T21:53:45;101608.80;;;6.16;100.00
37878;BME280;23715;53.652;8.516;2023-04-25T21:58:45;101618.42;;;6.11;100.00
37878;BME280;23715;53.652;8.516;2023-04-25T22:03:44;101623.68;;;6.44;100.00
37878;BME280;23715;53.652;8.516;2023-04-25T22:08:44;101634.84;;;5.95;100.00
37878;BME280;23715;53.652;8.516;2023-04-25T22:13:44;101630.58;;;6.17;100.00
37878;BME280;23715;53.652;8.516;2023-04-25T22:18:44;101627.91;;;6.17;100.00
37878;BME280;23715;53.652;8.516;2023-04-25T22:23:43;101661.02;;;5.88;100.00
37878;BME280;23715;53.652;8.516;2023-04-25T22:28:43;101639.59;;;5.72;100.00
37878;BME280;23715;53.652;8.516;2023-04-25T22:33:43;101641.08;;;5.78;100.00
37878;BME280;23715;53.652;8.516;2023-04-25T22:38:44;101640.66;;;5.94;100.00
37878;BME280;23715;53.652;8.516;2023-04-25T22:43:44;101635.57;;;6.23;100.00
37878;BME280;23715;53.652;8.516;2023-04-25T22:48:44;101644.02;;;6.06;100.00
37878;BME280;23715;53.652;8.516;2023-04-25T22:53:44;101652.02;;;5.73;100.00
37878;BME280;23715;53.652;8.516;2023-04-25T22:58:43;101641.69;;;6.00;100.00
37878;BME280;23715;53.652;8.516;2023-04-25T23:03:43;101644.81;;;5.91;100.00
37878;BME280;23715;53.652;8.516;2023-04-25T23:08:42;101643.87;;;6.01;100.00
37878;BME280;23715;53.652;8.516;2023-04-25T23:13:42;101642.80;;;5.96;100.00
37878;BME280;23715;53.652;8.516;2023-04-25T23:18:42;101649.94;;;5.87;100.00
37878;BME280;23715;53.652;8.516;2023-04-25T23:23:42;101644.77;;;6.01;100.00
37878;BME280;23715;53.652;8.516;2023-04-25T23:28:41;101622.83;;;6.28;100.00
37878;BME280;23715;53.652;8.516;2023-04-25T23:33:42;101629.94;;;6.20;100.00
37878;BME280;23715;53.652;8.516;2023-04-25T23:38:41;101620.05;;;6.14;100.00
37878;BME280;23715;53.652;8.516;2023-04-25T23:43:41;101621.32;;;6.06;100.00
37878;BME280;23715;53.652;8.516;2023-04-25T23:48:40;101615.53;;;6.07;100.00
37878;BME280;23715;53.652;8.516;2023-04-25T23:53:40;101611.61;;;6.05;100.00
37878;BME280;23715;53.652;8.516;2023-04-25T23:58:39;101631.13;;;6.15;100.00
